createdAt,value
2022-07-29T00:01:30.859Z,14.03
2022-07-29T00:04:36.832Z,14.82
2022-07-29T00:07:48.493Z,15.82
2022-07-29T00:10:51.469Z,15.05
2022-07-29T00:13:54.261Z,14.52
2022-07-29T00:16:57.327Z,17.03
2022-07-29T00:20:00.078Z,16.48
2022-07-29T00:23:04.124Z,16.23
2022-07-29T00:26:08.171Z,20.17
2022-07-29T00:29:33.624Z,17.02
2022-07-29T00:32:34.319Z,14.47
2022-07-29T00:35:47.206Z,15.93
2022-07-29T00:38:52.103Z,18.30
2022-07-29T00:41:55.273Z,16.80
2022-07-29T00:44:57.937Z,19.25
2022-07-29T00:48:01.255Z,17.30
2022-07-29T00:51:06.695Z,18.08
2022-07-29T00:54:09.892Z,18.12
2022-07-29T00:57:13.684Z,19.30
2022-07-29T01:00:27.412Z,18.75
2022-07-29T01:03:31.476Z,20.57
2022-07-29T01:06:35.753Z,20.12
2022-07-29T01:09:46.816Z,20.40
2022-07-29T01:12:54.894Z,20.33
2022-07-29T01:16:08.308Z,18.05
2022-07-29T01:19:22.124Z,18.90
2022-07-29T01:22:43.812Z,19.58
2022-07-29T01:26:06.446Z,20.08
2022-07-29T01:29:25.888Z,22.20
2022-07-29T01:32:36.744Z,20.52
2022-07-29T01:35:43.902Z,19.97
2022-07-29T01:38:56.005Z,20.75
2022-07-29T01:42:08.441Z,19.98
2022-07-29T01:45:14.295Z,18.33
2022-07-29T01:48:22.721Z,20.27
2022-07-29T01:51:32.800Z,19.37
2022-07-29T01:54:55.992Z,22.55
2022-07-29T01:58:02.082Z,18.87
2022-07-29T02:01:07.996Z,18.15
2022-07-29T02:04:13.843Z,20.65
2022-07-29T02:07:34.788Z,20.50
2022-07-29T02:10:39.577Z,17.73
2022-07-29T02:13:43.085Z,19.40
2022-07-29T02:16:48.814Z,17.10
2022-07-29T02:19:53.430Z,19.40
2022-07-29T02:22:59.655Z,16.37
2022-07-29T02:26:03.902Z,16.10
2022-07-29T02:29:09.945Z,17.42
2022-07-29T02:32:15.367Z,18.42
2022-07-29T02:35:21.100Z,17.55
2022-07-29T02:38:43.866Z,19.93
2022-07-29T02:41:50.369Z,15.07
2022-07-29T02:44:53.505Z,15.73
2022-07-29T02:47:59.265Z,15.52
2022-07-29T02:51:13.460Z,15.90
2022-07-29T02:54:57.183Z,15.83
2022-07-29T02:58:08.905Z,18.65
2022-07-29T03:01:22.102Z,18.95
2022-07-29T03:04:27.428Z,16.20
2022-07-29T03:07:31.015Z,19.90
2022-07-29T03:10:35.969Z,19.47
2022-07-29T03:13:39.767Z,21.98
2022-07-29T03:16:43.267Z,20.52
2022-07-29T03:19:46.829Z,17.05
2022-07-29T03:22:49.748Z,16.58
2022-07-29T03:25:53.333Z,19.43
2022-07-29T03:28:57.322Z,19.73
2022-07-29T03:32:00.410Z,21.92
2022-07-29T03:35:04.366Z,15.63
2022-07-29T03:38:09.872Z,19.58
2022-07-29T03:41:15.761Z,19.37
2022-07-29T03:44:20.831Z,16.67
2022-07-29T03:47:43.599Z,16.65
2022-07-29T03:50:52.042Z,14.80
2022-07-29T03:53:54.869Z,15.68
2022-07-29T03:57:02.241Z,23.37
2022-07-29T04:00:06.599Z,16.95
2022-07-29T04:03:11.714Z,15.23
2022-07-29T04:06:15.939Z,14.30
2022-07-29T04:09:18.925Z,15.20
2022-07-29T04:12:22.399Z,15.00
2022-07-29T04:15:25.640Z,15.98
2022-07-29T04:18:29.804Z,19.42
2022-07-29T04:21:37.741Z,15.02
2022-07-29T04:24:44.199Z,16.48
2022-07-29T04:28:02.984Z,11.80
2022-07-29T04:31:05.729Z,13.43
2022-07-29T04:34:10.531Z,12.45
2022-07-29T04:37:13.819Z,11.12
2022-07-29T04:40:18.291Z,11.65
2022-07-29T04:43:22.468Z,11.73
2022-07-29T04:46:26.080Z,11.77
2022-07-29T04:49:28.957Z,11.12
2022-07-29T04:52:32.149Z,11.60
2022-07-29T04:55:36.041Z,11.77
2022-07-29T04:58:42.264Z,11.90
2022-07-29T05:01:45.008Z,13.25
2022-07-29T05:04:47.996Z,11.32
2022-07-29T05:07:50.799Z,12.70
2022-07-29T05:10:54.064Z,10.98
2022-07-29T05:13:56.675Z,8.57
2022-07-29T05:17:00.046Z,10.80
2022-07-29T05:20:04.519Z,8.20
2022-07-29T05:23:07.618Z,11.12
2022-07-29T05:26:10.291Z,9.43
2022-07-29T05:29:42.764Z,9.93
2022-07-29T05:32:35.898Z,10.07
2022-07-29T05:35:38.962Z,11.50
2022-07-29T05:38:41.768Z,10.50
2022-07-29T05:41:47.692Z,11.20
2022-07-29T05:44:54.701Z,11.83
2022-07-29T05:47:58.257Z,10.02
2022-07-29T05:51:01.214Z,10.48
2022-07-29T05:54:07.614Z,11.57
2022-07-29T05:57:26.045Z,13.75
2022-07-29T06:00:29.128Z,11.40
2022-07-29T06:03:32.628Z,7.70
2022-07-29T06:06:36.012Z,13.30
2022-07-29T06:09:39.302Z,11.35
2022-07-29T06:12:44.723Z,12.13
2022-07-29T06:15:47.902Z,10.33
2022-07-29T06:18:50.588Z,8.90
2022-07-29T06:21:53.652Z,9.90
2022-07-29T06:24:56.280Z,9.25
2022-07-29T06:27:59.601Z,11.27
2022-07-29T06:31:02.364Z,7.70
2022-07-29T06:34:05.618Z,12.95
2022-07-29T06:37:09.452Z,15.48
2022-07-29T06:40:37.274Z,8.73
2022-07-29T06:43:52.477Z,7.57
2022-07-29T06:46:57.867Z,10.13
2022-07-29T06:50:01.720Z,8.07
2022-07-29T06:53:07.070Z,8.85
2022-07-29T06:56:10.086Z,10.95
2022-07-29T06:59:13.776Z,9.98
2022-07-29T07:02:16.594Z,11.83
2022-07-29T07:05:19.799Z,10.27
2022-07-29T07:08:23.307Z,7.10
2022-07-29T07:11:26.447Z,8.35
2022-07-29T07:14:30.206Z,8.68
2022-07-29T07:17:35.480Z,10.90
2022-07-29T07:20:38.663Z,10.25
2022-07-29T07:23:41.940Z,7.45
2022-07-29T07:26:45.929Z,10.95
2022-07-29T07:29:48.893Z,7.95
2022-07-29T07:32:51.735Z,6.57
2022-07-29T07:35:54.986Z,7.70
2022-07-29T07:38:57.711Z,7.28
2022-07-29T07:42:01.060Z,8.20
2022-07-29T07:45:13.406Z,8.95
2022-07-29T07:48:17.133Z,6.40
2022-07-29T07:51:19.923Z,9.00
2022-07-29T07:54:23.459Z,7.37
2022-07-29T07:57:26.395Z,8.02
2022-07-29T08:00:30.641Z,6.82
2022-07-29T08:03:34.560Z,11.83
2022-07-29T08:06:38.030Z,11.30
2022-07-29T08:09:40.997Z,8.02
2022-07-29T08:12:43.868Z,7.82
2022-07-29T08:15:47.201Z,9.73
2022-07-29T08:18:50.016Z,10.90
2022-07-29T08:21:55.139Z,7.55
2022-07-29T08:24:58.121Z,7.15
2022-07-29T08:28:01.123Z,7.50
2022-07-29T08:31:03.877Z,6.95
2022-07-29T08:34:07.119Z,11.00
2022-07-29T08:37:11.516Z,7.18
2022-07-29T08:40:15.418Z,8.23
2022-07-29T08:43:18.402Z,10.13
2022-07-29T08:46:23.005Z,10.45
2022-07-29T08:49:25.992Z,9.77
2022-07-29T08:52:30.392Z,8.10
2022-07-29T08:55:34.064Z,9.35
2022-07-29T08:58:38.293Z,6.97
2022-07-29T09:01:45.232Z,7.28
2022-07-29T09:04:49.352Z,9.00
2022-07-29T09:07:55.264Z,7.80
2022-07-29T09:10:59.519Z,10.20
2022-07-29T09:14:03.679Z,10.73
2022-07-29T09:17:08.074Z,9.45
2022-07-29T09:20:13.698Z,13.53
2022-07-29T09:23:23.045Z,6.62
2022-07-29T09:26:34.884Z,7.12
2022-07-29T09:29:38.635Z,9.15
2022-07-29T09:33:04.763Z,6.45
2022-07-29T09:36:09.897Z,11.27
2022-07-29T09:39:13.741Z,6.35
2022-07-29T09:42:30.270Z,5.72
2022-07-29T09:45:36.304Z,10.18
2022-07-29T09:48:39.822Z,8.40
2022-07-29T09:51:44.644Z,7.07
2022-07-29T09:54:47.832Z,8.18
2022-07-29T09:57:50.527Z,6.93
2022-07-29T10:00:54.805Z,7.60
2022-07-29T10:04:00.240Z,8.63
2022-07-29T10:07:06.541Z,6.83
2022-07-29T10:10:09.883Z,8.60
2022-07-29T10:13:16.375Z,7.43
2022-07-29T10:16:20.848Z,5.47
2022-07-29T10:19:25.747Z,5.55
2022-07-29T10:22:51.989Z,6.53
2022-07-29T10:25:52.055Z,7.20
2022-07-29T10:28:56.529Z,8.43
2022-07-29T10:32:17.836Z,6.18
2022-07-29T10:35:53.215Z,7.53
2022-07-29T10:39:07.353Z,7.27
2022-07-29T10:42:13.764Z,8.15
2022-07-29T10:45:20.290Z,7.20
2022-07-29T10:48:24.388Z,6.45
2022-07-29T10:51:47.104Z,6.20
2022-07-29T10:54:52.566Z,7.53
2022-07-29T10:58:18.049Z,5.03
2022-07-29T11:01:37.083Z,6.97
2022-07-29T11:04:47.071Z,7.35
2022-07-29T11:08:13.626Z,7.60
2022-07-29T11:11:33.346Z,7.93
2022-07-29T11:14:53.270Z,6.57
2022-07-29T11:17:59.194Z,6.85
2022-07-29T11:21:03.739Z,6.57
2022-07-29T11:24:30.001Z,8.40
2022-07-29T11:27:40.634Z,8.70
2022-07-29T11:30:54.552Z,6.97
2022-07-29T11:34:01.210Z,4.60
2022-07-29T11:37:11.661Z,5.82
2022-07-29T11:40:18.439Z,9.15
2022-07-29T11:43:52.578Z,5.07
2022-07-29T11:46:55.733Z,7.12
2022-07-29T11:50:00.387Z,6.37
2022-07-29T11:53:13.629Z,7.25
2022-07-29T11:56:22.620Z,5.40
2022-07-29T11:59:33.116Z,5.97
2022-07-29T12:02:43.539Z,7.72
2022-07-29T12:05:52.114Z,7.00
2022-07-29T12:08:54.879Z,7.93
2022-07-29T12:12:04.926Z,5.10
2022-07-29T12:15:20.379Z,6.73
2022-07-29T12:18:24.628Z,8.68
2022-07-29T12:21:29.087Z,8.02
2022-07-29T12:24:44.968Z,5.37
2022-07-29T12:27:48.794Z,6.25
2022-07-29T12:30:54.074Z,6.47
2022-07-29T12:33:56.966Z,6.62
2022-07-29T12:37:02.339Z,6.68
2022-07-29T12:40:08.749Z,8.05
2022-07-29T12:43:17.519Z,8.02
2022-07-29T12:46:20.507Z,7.60
2022-07-29T12:49:24.297Z,8.25
2022-07-29T12:52:35.118Z,10.77
2022-07-29T12:55:52.960Z,7.20
2022-07-29T12:58:55.727Z,8.52
2022-07-29T13:02:01.344Z,8.57
2022-07-29T13:05:05.978Z,7.87
2022-07-29T13:08:29.741Z,9.02
2022-07-29T13:11:34.453Z,8.85
2022-07-29T13:14:47.803Z,6.97
2022-07-29T13:17:50.437Z,6.10
2022-07-29T13:20:53.978Z,7.20
2022-07-29T13:23:56.651Z,7.43
2022-07-29T13:26:59.725Z,6.35
2022-07-29T13:30:06.407Z,6.10
2022-07-29T13:33:09.525Z,7.93
2022-07-29T13:36:12.124Z,7.72
2022-07-29T13:39:15.168Z,7.35
2022-07-29T13:42:17.825Z,5.85
2022-07-29T13:45:20.855Z,10.60
2022-07-29T13:48:23.559Z,6.97
2022-07-29T13:51:26.727Z,8.90
2022-07-29T13:54:29.806Z,7.55
2022-07-29T13:57:33.157Z,6.70
2022-07-29T14:00:36.641Z,6.87
2022-07-29T14:03:45.645Z,8.50
2022-07-29T14:06:48.689Z,7.78
2022-07-29T14:09:52.328Z,5.95
2022-07-29T14:12:54.997Z,5.68
2022-07-29T14:15:58.830Z,6.82
2022-07-29T14:19:01.646Z,7.83
2022-07-29T14:22:06.246Z,5.60
2022-07-29T14:25:14.525Z,8.15
2022-07-29T14:28:18.391Z,7.37
2022-07-29T14:31:21.352Z,9.10
2022-07-29T14:34:24.353Z,9.30
2022-07-29T14:37:27.041Z,8.93
2022-07-29T14:40:30.291Z,8.57
2022-07-29T14:43:33.168Z,6.37
2022-07-29T14:46:36.265Z,9.95
2022-07-29T14:49:38.945Z,5.77
2022-07-29T14:52:42.281Z,8.60
2022-07-29T14:55:45.161Z,6.60
2022-07-29T14:58:51.558Z,7.50
2022-07-29T15:01:54.822Z,7.65
2022-07-29T15:04:57.960Z,7.03
2022-07-29T15:08:02.465Z,6.10
2022-07-29T15:11:05.600Z,5.75
2022-07-29T15:14:08.398Z,6.55
2022-07-29T15:17:12.784Z,5.43
2022-07-29T15:20:15.678Z,6.43
2022-07-29T15:23:18.743Z,7.15
2022-07-29T15:26:21.764Z,6.28
2022-07-29T15:29:25.485Z,7.28
2022-07-29T15:32:30.392Z,9.15
2022-07-29T15:35:40.236Z,6.60
2022-07-29T15:38:45.262Z,8.50
2022-07-29T15:41:48.384Z,9.55
2022-07-29T15:44:51.567Z,7.07
2022-07-29T15:47:54.571Z,5.65
2022-07-29T15:50:57.276Z,5.83
2022-07-29T15:54:02.971Z,6.35
2022-07-29T15:57:09.737Z,8.70
2022-07-29T16:00:13.993Z,13.55
2022-07-29T16:03:17.083Z,7.15
2022-07-29T16:06:20.170Z,6.47
2022-07-29T16:09:23.519Z,8.25
2022-07-29T16:12:27.312Z,6.60
2022-07-29T16:15:31.980Z,7.40
2022-07-29T16:18:35.057Z,7.53
2022-07-29T16:21:39.953Z,8.30
2022-07-29T16:24:42.799Z,8.38
2022-07-29T16:27:45.846Z,7.20
2022-07-29T16:30:48.733Z,7.20
2022-07-29T16:33:55.247Z,11.45
2022-07-29T16:36:59.199Z,8.10
2022-07-29T16:40:05.027Z,9.20
2022-07-29T16:43:08.283Z,6.57
2022-07-29T16:46:18.620Z,6.68
2022-07-29T16:49:22.222Z,12.25
2022-07-29T16:52:25.326Z,7.70
2022-07-29T16:55:30.572Z,7.72
2022-07-29T16:58:34.058Z,8.60
2022-07-29T17:01:37.137Z,7.85
2022-07-29T17:04:41.195Z,9.52
2022-07-29T17:07:44.056Z,10.33
2022-07-29T17:10:47.551Z,9.57
2022-07-29T17:13:51.666Z,9.48
2022-07-29T17:17:01.010Z,8.02
2022-07-29T17:20:05.565Z,8.73
2022-07-29T17:23:08.638Z,7.40
2022-07-29T17:26:11.448Z,12.20
2022-07-29T17:29:16.227Z,15.98
2022-07-29T17:32:18.948Z,7.47
2022-07-29T17:35:41.061Z,8.65
2022-07-29T17:38:43.708Z,9.93
2022-07-29T17:41:47.057Z,8.73
2022-07-29T17:44:49.724Z,8.38
2022-07-29T17:47:52.807Z,11.80
2022-07-29T17:50:56.654Z,7.10
2022-07-29T17:53:59.920Z,7.37
2022-07-29T17:57:02.744Z,6.25
2022-07-29T18:00:08.515Z,7.82
2022-07-29T18:03:11.894Z,11.15
2022-07-29T18:06:15.930Z,6.40
2022-07-29T18:09:19.051Z,8.63
2022-07-29T18:12:22.557Z,10.15
2022-07-29T18:15:25.689Z,6.68
2022-07-29T18:18:28.481Z,10.13
2022-07-29T18:21:43.591Z,9.02
2022-07-29T18:24:54.242Z,9.80
2022-07-29T18:28:00.483Z,5.97
2022-07-29T18:31:03.859Z,8.27
2022-07-29T18:34:08.254Z,7.45
2022-07-29T18:37:13.852Z,6.05
2022-07-29T18:40:17.018Z,6.63
2022-07-29T18:43:19.673Z,8.85
2022-07-29T18:46:22.844Z,7.07
2022-07-29T18:49:26.121Z,8.27
2022-07-29T18:52:29.798Z,8.88
2022-07-29T18:55:32.466Z,8.27
2022-07-29T18:58:37.266Z,7.40
2022-07-29T19:01:39.993Z,8.90
2022-07-29T19:04:43.322Z,8.00
2022-07-29T19:07:46.026Z,11.15
2022-07-29T19:10:48.977Z,8.23
2022-07-29T19:13:51.743Z,8.45
2022-07-29T19:16:54.881Z,8.73
2022-07-29T19:19:57.817Z,5.70
2022-07-29T19:23:00.803Z,8.73
2022-07-29T19:26:03.677Z,9.37
2022-07-29T19:29:11.864Z,8.70
2022-07-29T19:32:24.431Z,7.07
2022-07-29T19:35:31.349Z,7.32
2022-07-29T19:38:35.506Z,8.98
2022-07-29T19:41:38.943Z,7.40
2022-07-29T19:44:41.806Z,7.50
2022-07-29T19:47:44.718Z,7.32
2022-07-29T19:50:47.695Z,8.02
2022-07-29T19:53:51.846Z,10.55
2022-07-29T19:56:54.660Z,6.90
2022-07-29T19:59:57.828Z,8.00
2022-07-29T20:03:00.981Z,6.28
2022-07-29T20:06:04.181Z,6.50
2022-07-29T20:09:07.620Z,7.22
2022-07-29T20:12:20.068Z,6.27
2022-07-29T20:15:23.075Z,6.93
2022-07-29T20:18:27.885Z,9.40
2022-07-29T20:21:31.622Z,5.90
2022-07-29T20:24:35.086Z,7.40
2022-07-29T20:27:42.941Z,7.57
2022-07-29T20:30:47.523Z,8.38
2022-07-29T20:33:51.236Z,5.43
2022-07-29T20:36:54.305Z,6.07
2022-07-29T20:39:56.993Z,5.62
2022-07-29T20:43:00.488Z,7.47
2022-07-29T20:46:03.673Z,7.00
2022-07-29T20:49:07.626Z,7.05
2022-07-29T20:52:12.896Z,6.22
2022-07-29T20:55:17.140Z,6.32
2022-07-29T20:58:20.421Z,5.90
2022-07-29T21:01:26.731Z,7.80
2022-07-29T21:04:32.672Z,7.43
2022-07-29T21:07:37.064Z,6.20
2022-07-29T21:10:39.812Z,8.35
2022-07-29T21:13:45.621Z,5.93
2022-07-29T21:16:48.529Z,6.97
2022-07-29T21:19:55.520Z,6.07
2022-07-29T21:22:58.473Z,5.95
2022-07-29T21:26:04.597Z,5.80
2022-07-29T21:29:07.962Z,6.53
2022-07-29T21:32:11.124Z,5.90
2022-07-29T21:35:30.321Z,7.35
2022-07-29T21:38:38.920Z,5.90
2022-07-29T21:41:41.714Z,6.72
2022-07-29T21:44:45.266Z,7.63
2022-07-29T21:47:48.168Z,6.68
2022-07-29T21:50:52.283Z,7.12
2022-07-29T21:53:54.982Z,5.78
2022-07-29T21:56:59.413Z,7.30
2022-07-29T22:00:05.578Z,7.23
2022-07-29T22:03:15.467Z,5.80
2022-07-29T22:06:18.705Z,8.20
2022-07-29T22:09:21.967Z,7.22
2022-07-29T22:12:25.003Z,6.65
2022-07-29T22:15:28.949Z,7.83
2022-07-29T22:18:32.174Z,6.15
2022-07-29T22:21:35.105Z,8.13
2022-07-29T22:24:38.267Z,8.18
2022-07-29T22:27:41.813Z,6.87
2022-07-29T22:30:44.946Z,7.77
2022-07-29T22:33:53.317Z,9.27
2022-07-29T22:36:56.251Z,9.80
2022-07-29T22:39:59.009Z,8.18
2022-07-29T22:43:03.344Z,7.25
2022-07-29T22:46:09.471Z,6.97
2022-07-29T22:49:12.746Z,7.82
2022-07-29T22:52:15.641Z,12.05
2022-07-29T22:55:18.754Z,13.77
2022-07-29T22:58:21.438Z,9.63
2022-07-29T23:01:37.837Z,10.23
2022-07-29T23:04:41.086Z,13.68
2022-07-29T23:07:44.152Z,11.43
2022-07-29T23:10:47.375Z,15.05
2022-07-29T23:13:50.411Z,10.18
2022-07-29T23:16:54.005Z,11.97
2022-07-29T23:19:57.042Z,12.15
2022-07-29T23:22:59.689Z,13.45
2022-07-29T23:26:02.746Z,11.45
2022-07-29T23:29:05.593Z,11.95
2022-07-29T23:32:08.549Z,13.20
2022-07-29T23:35:11.380Z,10.70
2022-07-29T23:38:14.482Z,10.65
2022-07-29T23:41:17.401Z,12.57
2022-07-29T23:44:20.527Z,14.07
2022-07-29T23:47:25.661Z,15.67
2022-07-29T23:50:28.685Z,13.65
2022-07-29T23:53:35.462Z,13.48
2022-07-29T23:56:38.434Z,12.65
2022-07-29T23:59:41.292Z,12.27
